Time;durP1;ratioP1;P1;durP2;ratioP2;P2;SDS_P1;SDS_P2;PMS_P1;PMS_P2;Temp;Humidity;BMP_temperature;BMP_pressure;BME280_temperature;BME280_humidity;BME280_pressure;Samples;Min_cycle;Max_cycle;Signal;HPM_P1;HPM_P2
2022/04/17 00:03:29;;;;;;;2.50;2.30;;;;;;;8.12;54.11;96551.56;10451058;27;96901;-65
2022/04/17 00:08:32;;;;;;;3.97;3.17;;;;;;;8.18;53.42;96546.81;10432003;27;97271;-65
2022/04/17 00:13:36;;;;;;;3.30;2.70;;;;;;;8.10;53.63;96543.06;10451476;27;96959;-65
2022/04/17 00:18:40;;;;;;;3.25;2.90;;;;;;;8.05;54.01;96536.56;10435028;27;96733;-65
2022/04/17 00:23:44;;;;;;;3.30;2.60;;;;;;;7.96;53.77;96531.16;10430322;27;96771;-65
2022/04/17 00:28:47;;;;;;;3.22;2.70;;;;;;;7.91;53.75;96533.31;10436257;27;97248;-65
2022/04/17 00:33:51;;;;;;;3.67;2.70;;;;;;;7.87;53.84;96521.50;10435417;27;96975;-65
2022/04/17 00:38:54;;;;;;;2.95;2.50;;;;;;;7.89;53.61;96529.16;10430625;27;96932;-65
2022/04/17 00:43:57;;;;;;;3.08;2.47;;;;;;;7.79;53.79;96531.69;10452685;27;96920;-65
2022/04/17 00:49:01;;;;;;;5.53;3.20;;;;;;;7.73;54.19;96519.19;10451214;27;96760;-65
2022/04/17 00:54:05;;;;;;;4.05;3.00;;;;;;;7.64;54.27;96507.75;10457326;27;99764;-65
2022/04/17 00:59:09;;;;;;;5.47;3.10;;;;;;;7.62;54.29;96501.84;10442168;27;96832;-65
2022/04/17 01:04:14;;;;;;;3.08;2.28;;;;;;;7.63;53.69;96503.50;10437235;27;98444;-65
2022/04/17 01:09:17;;;;;;;4.10;2.78;;;;;;;7.56;54.17;96510.97;10455892;27;97014;-65
2022/04/17 01:14:20;;;;;;;4.68;3.17;;;;;;;7.40;54.58;96510.50;10432928;27;96963;-65
2022/04/17 01:19:25;;;;;;;4.50;3.20;;;;;;;7.34;54.54;96508.41;10437633;27;96804;-65
2022/04/17 01:29:51;;;;;;;3.83;2.90;;;;;;;7.07;55.14;96507.03;10447641;27;96925;-65
2022/04/17 01:34:54;;;;;;;3.03;2.72;;;;;;;7.04;55.06;96489.06;10433113;27;97783;-65
2022/04/17 01:39:58;;;;;;;4.60;2.97;;;;;;;7.02;54.84;96493.56;10435408;27;96769;-65
2022/04/17 01:45:01;;;;;;;3.10;2.53;;;;;;;6.90;54.88;96489.28;10431826;27;96815;-65
2022/04/17 01:50:04;;;;;;;3.85;2.70;;;;;;;6.83;54.79;96492.38;10435062;27;96705;-65
2022/04/17 01:55:09;;;;;;;3.85;3.08;;;;;;;6.77;54.41;96490.25;10446238;27;96858;-65
2022/04/17 02:00:13;;;;;;;4.20;3.35;;;;;;;6.85;54.99;96487.88;10447483;27;97123;-64
2022/04/17 02:05:16;;;;;;;8.15;6.20;;;;;;;6.93;55.20;96486.47;10456156;27;97554;-64
2022/04/17 02:10:21;;;;;;;3.88;3.33;;;;;;;6.93;55.54;96476.88;10444011;27;99772;-65
2022/04/17 02:15:24;;;;;;;4.28;3.20;;;;;;;6.99;55.10;96478.25;10447843;27;98247;-64
2022/04/17 02:20:27;;;;;;;4.82;3.72;;;;;;;6.95;55.17;96477.59;10452988;27;96813;-64
2022/04/17 02:25:32;;;;;;;4.57;3.70;;;;;;;6.90;55.24;96481.50;10438584;27;97096;-64
2022/04/17 02:30:35;;;;;;;4.80;3.47;;;;;;;6.88;55.25;96475.59;10440404;27;96907;-65
2022/04/17 02:35:38;;;;;;;4.18;3.15;;;;;;;6.85;55.17;96467.09;10433244;27;96779;-64
2022/04/17 02:40:42;;;;;;;3.55;3.10;;;;;;;6.85;55.38;96461.09;10428836;27;96671;-65
2022/04/17 02:45:45;;;;;;;3.85;3.42;;;;;;;6.82;55.43;96456.13;10430912;27;96715;-64
2022/04/17 02:50:48;;;;;;;4.93;2.97;;;;;;;6.72;55.81;96458.59;10430266;27;97789;-64
2022/04/17 02:55:52;;;;;;;4.60;3.28;;;;;;;6.69;55.80;96460.63;10418969;28;96899;-64
2022/04/17 03:06:16;;;;;;;4.20;3.45;;;;;;;6.60;55.58;96457.78;10426431;27;96921;-64
2022/04/17 03:11:20;;;;;;;3.53;2.95;;;;;;;6.63;55.51;96461.91;10431203;27;99791;-64
2022/04/17 03:16:23;;;;;;;3.90;3.13;;;;;;;6.53;55.63;96463.56;10449683;27;96752;-64
2022/04/17 03:21:26;;;;;;;6.10;3.70;;;;;;;6.44;55.66;96460.72;10426854;27;96714;-64
2022/04/17 03:26:30;;;;;;;4.03;3.00;;;;;;;6.42;55.73;96449.63;10426777;27;97450;-64
2022/04/17 03:31:33;;;;;;;4.38;3.22;;;;;;;6.32;55.95;96453.88;10430101;27;99852;-64
2022/04/17 03:36:37;;;;;;;4.13;3.08;;;;;;;6.22;56.22;96456.31;10427769;27;97871;-64
2022/04/17 03:41:41;;;;;;;4.32;2.88;;;;;;;5.98;56.79;96456.41;10427086;27;97172;-64
2022/04/17 03:46:44;;;;;;;3.83;3.10;;;;;;;5.93;56.72;96453.34;10427857;27;96773;-64
2022/04/17 03:51:46;;;;;;;4.20;3.35;;;;;;;5.92;56.45;96456.84;10428961;27;96693;-64
2022/04/17 03:56:52;;;;;;;4.32;3.20;;;;;;;5.98;56.34;96458.16;10423761;27;96857;-64
2022/04/17 04:01:55;;;;;;;4.30;3.08;;;;;;;5.97;56.36;96457.34;10428220;27;97110;-64
2022/04/17 04:06:58;;;;;;;4.97;3.30;;;;;;;5.81;56.42;96454.22;10429231;27;98720;-64
2022/04/17 04:12:02;;;;;;;5.05;2.92;;;;;;;5.75;56.66;96446.91;10435623;27;97095;-64
2022/04/17 04:17:05;;;;;;;6.10;3.70;;;;;;;5.62;56.63;96440.03;10453124;27;96777;-64
2022/04/17 04:22:08;;;;;;;5.22;3.50;;;;;;;5.51;57.03;96447.75;10445131;27;96841;-64
2022/04/17 04:32:32;;;;;;;4.05;3.20;;;;;;;5.15;57.53;96454.66;10424630;27;96877;-63
2022/04/17 04:37:39;;;;;;;4.25;2.97;;;;;;;4.77;58.87;96453.81;10439199;27;98143;-64
2022/04/17 04:42:43;;;;;;;6.85;3.50;;;;;;;4.90;58.80;96452.94;10442226;27;97822;-64
2022/04/17 04:47:46;;;;;;;5.93;3.35;;;;;;;5.04;58.14;96470.09;10443891;27;96968;-64
2022/04/17 04:52:49;;;;;;;3.20;2.70;;;;;;;4.84;58.65;96476.69;10437560;27;96674;-64
2022/04/17 04:57:53;;;;;;;3.85;2.63;;;;;;;4.45;59.30;96476.72;10443862;27;98361;-64
2022/04/17 05:02:56;;;;;;;4.68;3.28;;;;;;;4.53;58.91;96477.03;10430363;27;96899;-64
2022/04/17 05:07:58;;;;;;;4.03;3.15;;;;;;;4.75;58.69;96475.56;10448893;27;97107;-64
2022/04/17 05:13:03;;;;;;;3.80;3.00;;;;;;;4.60;59.16;96474.03;10446427;27;96763;-64
2022/04/17 05:18:06;;;;;;;4.20;2.87;;;;;;;4.51;59.25;96484.06;10426203;27;96723;-63
2022/04/17 05:23:18;;;;;;;3.45;2.88;;;;;;;4.36;59.52;96495.44;10432839;27;96837;-64
2022/04/17 05:28:23;;;;;;;4.03;3.22;;;;;;;4.23;60.08;96494.59;10432939;27;97170;-64
2022/04/17 05:33:26;;;;;;;4.13;3.00;;;;;;;4.38;59.06;96493.56;10430717;27;96990;-64
2022/04/17 05:38:29;;;;;;;4.10;3.38;;;;;;;4.54;59.11;96496.81;10432399;27;97147;-64
2022/04/17 05:43:33;;;;;;;5.88;3.65;;;;;;;4.72;58.36;96492.13;10432609;27;97331;-64
2022/04/17 05:48:36;;;;;;;5.38;3.92;;;;;;;5.06;57.16;96497.56;10432943;27;96929;-64
2022/04/17 05:53:39;;;;;;;5.00;3.42;;;;;;;5.19;57.54;96500.09;10428941;27;96854;-64
2022/04/17 05:58:43;;;;;;;4.82;3.20;;;;;;;5.36;56.56;96509.28;10431574;27;96719;-64
2022/04/17 06:03:46;;;;;;;5.50;3.60;;;;;;;5.57;56.30;96503.50;10435880;27;96665;-64
2022/04/17 06:08:49;;;;;;;5.60;3.70;;;;;;;5.81;55.80;96506.06;10470719;27;96852;-64
2022/04/17 06:13:53;;;;;;;4.70;3.85;;;;;;;5.96;55.69;96510.13;10433436;27;96776;-64
2022/04/17 06:18:56;;;;;;;6.72;3.90;;;;;;;6.08;55.48;96513.59;10430709;27;96919;-64
2022/04/17 06:23:59;;;;;;;4.80;3.50;;;;;;;6.05;55.41;96504.28;10452251;27;96733;-64
2022/04/17 06:29:05;;;;;;;5.10;3.80;;;;;;;6.16;55.19;96513.06;10458436;27;96956;-63
2022/04/17 06:34:08;;;;;;;5.78;3.58;;;;;;;6.24;55.35;96508.94;10438941;27;98282;-64
2022/04/17 06:39:11;;;;;;;6.03;3.83;;;;;;;6.31;55.11;96511.06;10450925;27;97261;-64
2022/04/17 06:44:15;;;;;;;6.05;4.03;;;;;;;6.40;54.89;96516.41;10426254;27;96944;-64
2022/04/17 06:49:18;;;;;;;5.15;4.07;;;;;;;6.40;54.83;96513.81;10430568;27;96823;-64
2022/04/17 06:54:21;;;;;;;6.07;4.55;;;;;;;6.46;55.00;96518.53;10448966;27;97889;-64
2022/04/17 06:59:25;;;;;;;5.82;4.00;;;;;;;6.49;55.03;96511.47;10447847;27;96755;-64
2022/04/17 07:04:29;;;;;;;6.13;4.45;;;;;;;6.56;55.02;96517.84;10436583;27;100439;-64
2022/04/17 07:09:32;;;;;;;6.32;4.82;;;;;;;6.58;55.08;96509.00;10429799;27;96880;-64
2022/04/17 07:14:36;;;;;;;5.68;4.53;;;;;;;6.70;54.84;96515.03;10427679;27;96894;-64
2022/04/17 07:19:39;;;;;;;6.85;4.82;;;;;;;6.69;54.70;96518.56;10439073;27;97032;-64
2022/04/17 07:24:43;;;;;;;6.65;4.90;;;;;;;6.71;54.54;96513.25;10427768;27;96771;-64
2022/04/17 07:29:47;;;;;;;7.40;5.05;;;;;;;6.78;54.18;96502.28;10418499;28;97175;-64
2022/04/17 07:34:50;;;;;;;6.40;4.80;;;;;;;6.78;54.46;96504.88;10428172;27;96885;-64
2022/04/17 07:39:53;;;;;;;7.05;5.00;;;;;;;6.77;54.26;96490.25;10429661;27;97107;-64
2022/04/17 07:44:57;;;;;;;6.22;4.93;;;;;;;6.92;54.14;96497.78;10425401;27;97100;-64
2022/04/17 07:50:00;;;;;;;6.85;5.13;;;;;;;7.04;54.53;96496.84;10437750;27;96763;-64
2022/04/17 07:55:05;;;;;;;6.38;4.88;;;;;;;6.99;54.00;96486.03;10435866;27;96881;-64
2022/04/17 08:00:10;;;;;;;6.65;5.57;;;;;;;7.05;54.27;96488.13;10425581;27;102700;-64
2022/04/17 08:05:35;;;;;;;;;;;;;;;7.07;54.06;96482.81;10426173;27;97431;-64
2022/04/17 08:10:39;;;;;;;6.40;5.05;;;;;;;7.16;53.99;96482.94;10432540;27;96982;-64
2022/04/17 08:15:43;;;;;;;7.68;5.82;;;;;;;7.14;53.93;96471.81;10435709;27;96927;-64
2022/04/17 08:20:46;;;;;;;7.65;5.40;;;;;;;7.24;53.78;96476.31;10424333;27;96843;-64
2022/04/17 08:25:50;;;;;;;6.10;5.00;;;;;;;7.34;53.97;96474.63;10428984;27;97170;-64
2022/04/17 08:30:55;;;;;;;7.38;5.45;;;;;;;7.54;53.78;96470.44;10435811;27;97239;-64
2022/04/17 08:35:59;;;;;;;7.05;5.82;;;;;;;7.68;53.79;96471.91;10459495;27;98654;-64
2022/04/17 08:41:05;;;;;;;6.60;5.30;;;;;;;7.70;53.92;96468.25;10440880;27;96738;-64
2022/04/17 08:46:11;;;;;;;7.57;5.10;;;;;;;7.84;53.80;96459.34;10447869;27;102893;-64
2022/04/17 08:51:14;;;;;;;7.97;5.82;;;;;;;7.78;53.12;96452.84;10459137;27;97185;-64
2022/04/17 08:56:17;;;;;;;8.48;5.57;;;;;;;7.98;53.85;96448.63;10448309;27;98694;-64
2022/04/17 09:01:22;;;;;;;8.35;5.53;;;;;;;8.15;53.57;96449.81;10443855;27;96934;-64
2022/04/17 09:06:25;;;;;;;7.07;5.75;;;;;;;8.17;53.39;96449.69;10432872;27;96712;-64
2022/04/17 09:11:28;;;;;;;7.10;5.40;;;;;;;8.15;53.10;96441.16;10459775;27;97940;-64
2022/04/17 09:16:36;;;;;;;6.55;5.40;;;;;;;8.17;52.98;96444.50;10440481;27;96940;-64
2022/04/17 09:21:39;;;;;;;7.50;5.88;;;;;;;8.24;52.85;96453.44;10432579;27;97189;-64
2022/04/17 09:26:49;;;;;;;6.72;5.70;;;;;;;8.35;52.70;96458.56;10429114;27;96761;-64
2022/04/17 09:32:02;;;;;;;6.88;5.50;;;;;;;8.42;52.29;96456.28;10427342;27;97128;-64
2022/04/17 09:37:12;;;;;;;6.43;5.67;;;;;;;8.65;52.57;96456.09;10433237;27;97527;-64
2022/04/17 09:42:22;;;;;;;6.43;5.53;;;;;;;8.81;52.19;96448.66;10436084;27;100208;-64
2022/04/17 09:47:27;;;;;;;6.45;5.70;;;;;;;8.92;51.98;96452.94;10446174;27;97128;-64
2022/04/17 09:52:40;;;;;;;11.10;7.50;;;;;;;8.92;51.86;96439.91;10434356;27;97406;-64
2022/04/17 09:57:44;;;;;;;17.50;10.20;;;;;;;9.05;51.53;96435.25;10451822;27;96687;-64
2022/04/17 10:02:49;;;;;;;9.05;5.72;;;;;;;9.05;51.53;96434.44;10420505;28;103081;-64
2022/04/17 10:07:51;;;;;;;6.20;5.28;;;;;;;9.13;51.14;96424.19;10434447;27;96770;-64
2022/04/17 10:12:55;;;;;;;6.55;5.43;;;;;;;9.34;50.86;96424.06;10434277;27;97008;-64
2022/04/17 10:18:03;;;;;;;8.05;5.22;;;;;;;9.35;50.51;96423.13;10428048;27;96756;-64
2022/04/17 10:23:10;;;;;;;8.35;6.93;;;;;;;9.61;50.28;96409.56;10441964;27;96805;-64
2022/04/17 10:28:15;;;;;;;6.63;5.80;;;;;;;9.66;49.42;96415.19;10440052;27;100537;-64
2022/04/17 10:33:32;;;;;;;6.00;5.03;;;;;;;9.80;50.18;96412.19;10451055;27;97304;-64
2022/04/17 10:38:46;;;;;;;5.75;4.13;;;;;;;9.99;49.14;96413.09;10427408;27;97072;-64
2022/04/17 10:44:01;;;;;;;7.38;5.15;;;;;;;10.12;49.42;96392.75;10430951;27;96933;-64
2022/04/17 10:49:05;;;;;;;7.10;5.95;;;;;;;10.29;49.22;96387.75;10431826;27;96940;-64
2022/04/17 10:54:11;;;;;;;8.30;5.03;;;;;;;10.37;48.48;96380.03;10428930;27;96940;-64
2022/04/17 10:59:17;;;;;;;35.72;18.55;;;;;;;10.52;47.80;96378.59;10446339;27;97293;-64
2022/04/17 11:04:23;;;;;;;8.77;6.15;;;;;;;10.67;47.01;96383.34;10438457;27;97384;-64
2022/04/17 11:09:26;;;;;;;6.45;5.28;;;;;;;10.83;46.52;96383.56;10454734;27;96817;-64
2022/04/17 11:14:31;;;;;;;5.13;3.53;;;;;;;10.80;46.20;96368.16;10444015;27;97800;-64
2022/04/17 11:19:41;;;;;;;5.20;3.60;;;;;;;10.86;45.88;96364.13;10457505;27;97101;-64
2022/04/17 11:25:02;;;;;;;5.20;3.88;;;;;;;11.07;44.70;96363.88;10430288;27;97161;-64
2022/04/17 11:30:07;;;;;;;5.88;4.22;;;;;;;11.13;44.93;96352.84;10419513;27;96884;-64
2022/04/17 11:35:12;;;;;;;6.57;4.13;;;;;;;11.31;44.64;96338.00;10457729;27;96843;-64
2022/04/17 11:40:17;;;;;;;4.72;3.60;;;;;;;11.52;44.31;96339.50;10440244;27;97277;-64
2022/04/17 11:45:22;;;;;;;4.90;4.00;;;;;;;11.58;44.26;96333.66;10441932;27;96758;-64
2022/04/17 11:50:28;;;;;;;4.88;3.67;;;;;;;11.62;44.36;96328.94;10447967;27;96737;-64
2022/04/17 11:55:33;;;;;;;3.80;3.28;;;;;;;11.88;43.91;96323.72;10443780;27;96990;-64
2022/04/17 12:00:36;;;;;;;6.80;3.80;;;;;;;12.07;43.70;96296.50;10444415;27;98352;-65
2022/04/17 12:05:40;;;;;;;4.55;3.00;;;;;;;12.34;43.59;96298.13;10439693;27;96731;-65
2022/04/17 12:10:44;;;;;;;4.83;3.00;;;;;;;12.53;42.65;96301.44;10431153;27;96779;-65
2022/04/17 12:15:58;;;;;;;3.33;2.60;;;;;;;12.61;42.26;96297.09;10460794;27;96775;-64
2022/04/17 12:21:05;;;;;;;2.80;2.30;;;;;;;12.29;40.75;96295.16;10447953;27;97291;-64
2022/04/17 12:26:11;;;;;;;3.38;2.50;;;;;;;12.48;41.12;96289.66;10449850;27;96923;-64
2022/04/17 12:31:17;;;;;;;3.55;2.05;;;;;;;12.58;40.67;96286.91;10436302;27;96963;-64
2022/04/17 12:36:22;;;;;;;3.05;2.50;;;;;;;12.81;40.51;96279.25;10431464;27;96771;-64
2022/04/17 12:41:27;;;;;;;4.55;2.63;;;;;;;12.88;39.51;96259.28;10436388;27;96718;-65
2022/04/17 12:46:30;;;;;;;3.17;2.47;;;;;;;13.04;39.51;96261.13;10436383;27;97052;-64
2022/04/17 12:51:35;;;;;;;3.42;2.92;;;;;;;13.36;38.98;96261.31;10444122;27;97302;-65
2022/04/17 12:56:38;;;;;;;2.70;2.42;;;;;;;13.47;38.47;96247.88;10430034;27;96857;-65
2022/04/17 13:01:47;;;;;;;2.47;2.03;;;;;;;13.54;37.93;96248.84;10434164;27;97121;-65
2022/04/17 13:07:10;;;;;;;5.03;2.50;;;;;;;13.88;37.96;96234.69;10435375;27;97768;-65
2022/04/17 13:12:30;;;;;;;2.58;1.90;;;;;;;13.90;36.80;96232.69;10438082;27;97001;-65
2022/04/17 13:17:44;;;;;;;2.45;2.20;;;;;;;14.24;37.08;96228.94;10445475;27;98208;-65
2022/04/17 13:22:49;;;;;;;2.38;1.83;;;;;;;14.32;36.31;96226.31;10432594;27;96850;-65
2022/04/17 13:27:52;;;;;;;2.75;1.83;;;;;;;14.35;36.03;96212.84;10452215;27;96905;-66
2022/04/17 13:32:55;;;;;;;2.08;1.58;;;;;;;14.67;36.17;96211.03;10429075;27;96925;-65
2022/04/17 13:38:14;;;;;;;3.33;1.60;;;;;;;14.90;35.48;96207.59;10447331;27;96853;-62
2022/04/17 13:43:24;;;;;;;1.90;1.35;;;;;;;14.92;34.78;96185.38;10439666;27;96732;-62
2022/04/17 13:48:27;;;;;;;3.88;1.88;;;;;;;15.25;34.97;96168.50;10455980;27;98321;-63
2022/04/17 13:53:31;;;;;;;3.60;1.98;;;;;;;15.49;34.57;96170.91;10440933;27;96846;-63
2022/04/17 13:58:34;;;;;;;2.87;1.60;;;;;;;15.70;34.21;96158.84;10440088;27;96975;-63
2022/04/17 14:03:38;;;;;;;3.28;1.48;;;;;;;16.07;33.48;96151.84;10431344;27;96937;-63
2022/04/17 14:08:42;;;;;;;2.07;1.43;;;;;;;16.31;33.14;96144.59;10436892;27;97653;-63
2022/04/17 14:13:45;;;;;;;2.40;1.42;;;;;;;16.67;33.04;96126.13;10429413;27;97102;-63
2022/04/17 14:18:48;;;;;;;2.70;1.70;;;;;;;17.60;31.64;96136.63;10433328;27;98797;-63
2022/04/17 14:23:52;;;;;;;1.65;0.90;;;;;;;18.50;29.70;96137.41;10425724;27;96919;-63
2022/04/17 14:28:55;;;;;;;2.40;1.17;;;;;;;19.27;29.14;96115.09;10446553;27;96922;-63
2022/04/17 14:33:58;;;;;;;1.42;1.00;;;;;;;19.73;28.23;96115.03;10446664;27;99980;-63
2022/04/17 14:39:02;;;;;;;1.10;0.93;;;;;;;20.02;27.13;96106.78;10460767;27;97055;-63
2022/04/17 14:44:05;;;;;;;2.10;1.20;;;;;;;20.80;27.15;96092.50;10444554;27;96762;-63
2022/04/17 14:49:08;;;;;;;1.23;0.93;;;;;;;21.58;25.92;96083.22;10447449;27;96888;-63
2022/04/17 14:54:13;;;;;;;1.85;1.08;;;;;;;22.19;25.27;96076.97;10453870;27;100299;-63
2022/04/17 14:59:18;;;;;;;1.33;0.90;;;;;;;22.78;24.60;96071.06;10445971;27;96933;-63
2022/04/17 15:04:21;;;;;;;1.40;0.80;;;;;;;22.74;24.18;96065.38;10430888;27;96805;-63
2022/04/17 15:09:25;;;;;;;1.80;1.07;;;;;;;22.94;23.81;96054.44;10438310;27;98607;-64
2022/04/17 15:14:28;;;;;;;1.02;0.80;;;;;;;23.36;23.73;96057.00;10447745;27;102035;-63
2022/04/17 15:19:37;;;;;;;1.20;0.80;;;;;;;23.44;22.89;96050.50;10456682;27;97065;-63
2022/04/17 15:24:42;;;;;;;0.75;0.73;;;;;;;23.77;22.75;96043.72;10451689;27;96849;-64
2022/04/17 15:29:45;;;;;;;3.75;1.80;;;;;;;23.84;22.50;96035.56;10441396;27;96744;-64
2022/04/17 15:34:47;;;;;;;1.83;1.00;;;;;;;23.71;22.36;96026.81;10438104;27;96855;-65
2022/04/17 15:39:52;;;;;;;1.10;1.00;;;;;;;24.13;22.48;96023.91;10438441;27;96904;-65
2022/04/17 15:50:15;;;;;;;2.72;1.15;;;;;;;23.93;21.24;96015.47;10442654;27;97831;-65
2022/04/17 15:55:20;;;;;;;1.03;0.87;;;;;;;24.18;21.03;96015.19;10443161;27;97192;-65
2022/04/17 16:00:23;;;;;;;1.67;0.70;;;;;;;24.24;20.29;96021.41;10429172;27;96771;-65
2022/04/17 16:05:26;;;;;;;1.33;0.87;;;;;;;24.15;20.50;96036.19;10427070;27;96712;-65
2022/04/17 16:10:30;;;;;;;1.67;0.70;;;;;;;24.36;20.21;96037.38;10431124;27;100740;-65
2022/04/17 16:15:33;;;;;;;1.27;0.77;;;;;;;24.38;19.54;96030.72;10427874;27;97282;-65
2022/04/17 16:20:36;;;;;;;1.60;1.00;;;;;;;24.09;19.77;96024.63;10431224;27;96920;-65
2022/04/17 16:25:40;;;;;;;1.97;0.80;;;;;;;24.17;19.92;96028.75;10428728;27;96731;-65
2022/04/17 16:30:44;;;;;;;1.73;1.00;;;;;;;23.95;20.01;96021.41;10435526;27;97200;-65
2022/04/17 16:35:46;;;;;;;;;;;;;;;23.43;21.00;96032.06;10428652;27;96761;-65
2022/04/17 16:40:50;;;;;;;0.80;0.70;;;;;;;23.80;19.79;96018.44;10446220;27;97525;-65
2022/04/17 16:45:53;;;;;;;1.73;0.77;;;;;;;23.95;19.66;96016.06;10442952;27;97156;-65
2022/04/17 16:50:57;;;;;;;1.20;0.73;;;;;;;23.53;19.53;96002.94;10440326;27;100050;-65
2022/04/17 16:56:01;;;;;;;1.10;0.88;;;;;;;23.09;19.51;96018.50;10434553;27;96755;-67
2022/04/17 17:01:09;;;;;;;1.40;0.90;;;;;;;23.54;19.98;96007.25;10455231;27;98779;-65
2022/04/17 17:06:12;;;;;;;1.85;1.10;;;;;;;23.67;19.82;96009.66;10443236;27;96886;-65
2022/04/17 17:11:17;;;;;;;1.60;1.00;;;;;;;23.26;19.37;96016.75;10446686;27;96886;-65
2022/04/17 17:16:19;;;;;;;1.02;0.80;;;;;;;22.47;19.22;96021.56;10447684;27;98937;-65
2022/04/17 17:21:22;;;;;;;1.48;0.77;;;;;;;21.35;19.72;96014.78;10431362;27;96739;-65
2022/04/17 17:26:27;;;;;;;1.83;0.75;;;;;;;20.08;20.76;96015.78;10445040;27;96641;-65
2022/04/17 17:31:30;;;;;;;1.10;0.90;;;;;;;18.85;21.54;96023.47;10446887;27;97022;-65
2022/04/17 17:36:33;;;;;;;1.13;0.80;;;;;;;17.56;22.49;96030.53;10452581;27;99380;-65
2022/04/17 17:41:38;;;;;;;1.63;0.90;;;;;;;16.71;23.29;96028.97;10457427;27;96896;-65
2022/04/17 17:46:41;;;;;;;2.05;1.20;;;;;;;15.90;24.00;96023.97;10454492;27;97209;-65
2022/04/17 17:51:45;;;;;;;1.77;0.85;;;;;;;15.30;24.17;96034.56;10447380;27;98033;-65
2022/04/17 17:56:50;;;;;;;1.00;0.90;;;;;;;14.91;24.85;96035.63;10455417;27;96766;-64
2022/04/17 18:01:56;;;;;;;1.92;1.00;;;;;;;14.75;24.93;96042.69;10451137;27;96855;-65
2022/04/17 18:07:00;;;;;;;1.45;1.05;;;;;;;14.46;25.92;96047.88;10445681;27;97900;-65
2022/04/17 18:17:36;;;;;;;1.33;1.00;;;;;;;13.89;26.96;96049.03;10454253;27;96940;-65
2022/04/17 18:22:41;;;;;;;2.47;1.10;;;;;;;13.74;27.00;96059.44;10445273;27;97190;-64
2022/04/17 18:27:47;;;;;;;1.83;1.05;;;;;;;13.46;27.56;96054.66;10470333;27;98869;-64
2022/04/17 18:32:50;;;;;;;2.85;1.15;;;;;;;13.31;27.99;96059.81;10454298;27;96884;-64
2022/04/17 18:37:52;;;;;;;1.45;1.10;;;;;;;12.98;28.68;96064.31;10447000;27;96832;-65
2022/04/17 18:42:57;;;;;;;1.77;1.00;;;;;;;12.82;28.59;96065.94;10467340;27;97086;-65
2022/04/17 18:48:00;;;;;;;1.50;1.10;;;;;;;12.62;29.18;96059.41;10439343;27;98858;-64
2022/04/17 18:53:03;;;;;;;1.40;1.10;;;;;;;12.42;29.81;96059.75;10443686;27;97196;-65
2022/04/17 18:58:08;;;;;;;3.40;1.27;;;;;;;12.26;30.22;96057.09;10432641;27;96770;-65
2022/04/17 19:03:11;;;;;;;2.17;1.23;;;;;;;12.16;30.15;96066.91;10421121;27;97295;-65
2022/04/17 19:08:13;;;;;;;2.28;1.10;;;;;;;12.08;30.48;96068.53;10430128;27;102529;-65
2022/04/17 19:18:38;;;;;;;2.25;1.25;;;;;;;11.93;30.73;96065.72;10428761;27;96972;-65
2022/04/17 19:23:42;;;;;;;2.03;1.30;;;;;;;11.85;30.86;96072.75;10426400;27;96993;-65
2022/04/17 19:28:46;;;;;;;1.90;1.15;;;;;;;11.79;31.04;96074.19;10429026;27;96750;-65
2022/04/17 19:39:09;;;;;;;2.30;1.20;;;;;;;11.69;31.16;96057.81;10426277;27;97150;-65
2022/04/17 19:44:13;;;;;;;1.40;1.00;;;;;;;11.64;31.67;96071.38;10429201;27;96876;-65
2022/04/17 19:49:16;;;;;;;1.83;1.00;;;;;;;11.59;31.75;96071.03;10428992;27;99849;-65
2022/04/17 19:54:18;;;;;;;1.58;1.27;;;;;;;11.54;32.14;96070.69;10426405;27;96917;-65
2022/04/17 19:59:23;;;;;;;1.48;1.02;;;;;;;11.57;32.33;96069.56;10427587;27;96882;-65
2022/04/17 20:04:26;;;;;;;1.13;1.03;;;;;;;11.48;32.40;96073.94;10430710;27;96837;-65
2022/04/17 20:09:29;;;;;;;1.17;0.95;;;;;;;11.39;32.69;96080.13;10431647;27;97850;-64
2022/04/17 20:14:33;;;;;;;2.13;1.15;;;;;;;11.32;32.43;96077.28;10442103;27;96885;-65
2022/04/17 20:19:36;;;;;;;2.70;1.50;;;;;;;11.31;32.51;96076.50;10436535;27;96961;-65
2022/04/17 20:24:39;;;;;;;1.77;1.25;;;;;;;11.30;32.46;96071.38;10435029;27;96807;-65
2022/04/17 20:29:43;;;;;;;2.72;1.20;;;;;;;11.25;32.86;96068.41;10431872;27;96926;-65
2022/04/17 20:34:46;;;;;;;2.63;1.43;;;;;;;11.19;32.67;96056.78;10424684;28;96696;-65
2022/04/17 20:39:48;;;;;;;2.30;1.60;;;;;;;11.16;33.19;96059.72;10435171;27;96897;-65
2022/04/17 20:55:33;;;;;;;4.32;1.50;;;;;;;10.97;33.41;96066.78;10447168;27;97629;-65
2022/04/17 21:00:39;;;;;;;1.75;1.38;;;;;;;10.91;34.03;96069.19;10432596;27;96910;-65
2022/04/17 21:05:42;;;;;;;2.65;1.30;;;;;;;10.82;33.80;96063.09;10444622;27;96840;-65
2022/04/17 21:10:47;;;;;;;3.97;1.83;;;;;;;10.74;34.10;96068.28;10431290;27;96782;-65
2022/04/17 21:15:51;;;;;;;1.98;1.20;;;;;;;10.61;34.09;96063.44;10434728;27;97156;-65
2022/04/17 21:20:54;;;;;;;1.97;1.20;;;;;;;10.56;34.26;96074.34;10431859;27;96866;-65
2022/04/17 21:25:56;;;;;;;2.83;1.50;;;;;;;10.45;34.36;96063.31;10433404;27;96929;-65
2022/04/17 21:31:01;;;;;;;3.00;1.38;;;;;;;10.34;34.71;96064.34;10435650;27;96980;-65
2022/04/17 21:36:04;;;;;;;2.13;1.20;;;;;;;10.24;34.80;96061.84;10428838;27;96714;-65
2022/04/17 21:41:07;;;;;;;2.10;1.35;;;;;;;10.10;35.36;96065.81;10444895;27;96720;-65
2022/04/17 21:46:11;;;;;;;3.47;1.70;;;;;;;10.03;35.92;96072.59;10462655;27;96921;-65
2022/04/17 21:51:14;;;;;;;4.50;1.47;;;;;;;9.95;36.10;96062.06;10429388;27;98038;-65
2022/04/17 21:56:16;;;;;;;3.08;1.67;;;;;;;9.95;36.20;96067.28;10449535;27;96866;-65
2022/04/17 22:06:41;;;;;;;2.92;1.50;;;;;;;9.62;36.74;96074.75;10441218;27;96737;-65
2022/04/17 22:11:45;;;;;;;2.78;1.70;;;;;;;9.51;36.78;96069.75;10442795;27;96978;-64
2022/04/17 22:16:49;;;;;;;2.90;1.38;;;;;;;9.37;37.14;96074.44;10438637;27;96689;-65
2022/04/17 22:21:52;;;;;;;2.25;1.40;;;;;;;9.25;37.35;96079.00;10438989;27;96879;-65
2022/04/17 22:26:57;;;;;;;1.55;1.38;;;;;;;9.20;37.83;96076.00;10434136;27;98222;-65
2022/04/17 22:32:01;;;;;;;2.28;1.70;;;;;;;9.10;37.77;96063.00;10427476;27;96782;-65
2022/04/17 22:37:04;;;;;;;3.80;1.88;;;;;;;9.04;37.64;96063.59;10454140;27;96764;-65
2022/04/17 22:42:07;;;;;;;3.47;1.50;;;;;;;8.97;37.79;96074.72;10451890;27;96736;-65
2022/04/17 22:47:11;;;;;;;1.75;1.60;;;;;;;8.83;38.20;96076.81;10430803;27;96863;-65
2022/04/17 22:52:14;;;;;;;2.25;1.35;;;;;;;8.70;38.43;96071.91;10427479;27;97447;-65
2022/04/17 22:57:17;;;;;;;2.25;1.52;;;;;;;8.57;38.78;96078.38;10427561;27;96880;-65
2022/04/17 23:02:21;;;;;;;3.00;1.60;;;;;;;8.57;38.40;96081.81;10443015;27;99886;-65
2022/04/17 23:07:26;;;;;;;2.97;1.42;;;;;;;8.56;38.28;96084.56;10431115;27;96835;-65
2022/04/17 23:12:29;;;;;;;2.17;1.70;;;;;;;8.52;38.01;96078.81;10428117;27;96679;-65
2022/04/17 23:17:35;;;;;;;4.53;1.88;;;;;;;8.48;38.48;96080.88;10440938;27;96846;-65
2022/04/17 23:22:37;;;;;;;1.98;1.52;;;;;;;8.28;38.63;96090.44;10431787;27;97036;-65
2022/04/17 23:27:40;;;;;;;1.80;1.40;;;;;;;8.10;38.79;96086.88;10429247;27;98499;-65
2022/04/17 23:32:45;;;;;;;1.92;1.42;;;;;;;7.94;38.51;96092.59;10425830;27;96676;-65
2022/04/17 23:37:48;;;;;;;8.07;2.90;;;;;;;7.65;40.27;96095.16;10452349;27;99614;-65
2022/04/17 23:42:51;;;;;;;3.50;1.77;;;;;;;7.48;40.58;96092.25;10463896;27;98086;-65
2022/04/17 23:47:55;;;;;;;5.68;2.40;;;;;;;7.27;41.51;96099.25;10433806;27;97369;-65
2022/04/17 23:52:58;;;;;;;2.55;1.83;;;;;;;6.91;42.63;96085.81;10434378;27;96884;-65
2022/04/17 23:58:01;;;;;;;4.60;2.20;;;;;;;6.82;43.28;96082.22;10459561;27;98431;-65
